Time;durP1;ratioP1;P1;durP2;ratioP2;P2;SDS_P1;SDS_P2;PMS_P1;PMS_P2;Temp;Humidity;BMP_temperature;BMP_pressure;BME280_temperature;BME280_humidity;BME280_pressure;Samples;Min_cycle;Max_cycle;Signal;HPM_P1;HPM_P2
2022/04/30 00:01:50;;;;;;;;;;;6.50;99.90;;;;;;5005061;28;19925;-69
2022/04/30 00:04:16;;;;;;;;;;;6.40;99.90;;;;;;5003953;28;19971;-68
2022/04/30 00:06:45;;;;;;;;;;;6.40;99.90;;;;;;4998632;28;19932;-69
2022/04/30 00:09:11;;;;;;;;;;;7.30;99.90;;;;;;5002663;28;19964;-70
2022/04/30 00:11:36;;;;;;;;;;;6.40;99.90;;;;;;4998230;28;20363;-69
2022/04/30 00:14:02;;;;;;;;;;;6.40;99.90;;;;;;5003002;28;20303;-69
2022/04/30 00:16:27;;;;;;;;;;;7.80;99.90;;;;;;5001605;28;19925;-68
2022/04/30 00:18:53;;;;;;;;;;;6.50;99.90;;;;;;4998977;28;19977;-68
2022/04/30 00:21:18;;;;;;;;;;;6.50;99.90;;;;;;5003565;28;19983;-68
2022/04/30 00:23:44;;;;;;;;;;;6.50;99.90;;;;;;5007416;28;19936;-69
2022/04/30 00:26:09;;;;;;;;;;;6.50;99.90;;;;;;5002013;28;19932;-69
2022/04/30 00:28:35;;;;;;;;;;;6.50;99.90;;;;;;5001670;28;19932;-69
2022/04/30 00:31:02;;;;;;;;;;;6.50;99.90;;;;;;4998169;28;20352;-69
2022/04/30 00:33:28;;;;;;;;;;;6.50;99.90;;;;;;5011298;28;19925;-67
2022/04/30 00:35:53;;;;;;;;;;;6.60;99.90;;;;;;4998707;28;19925;-69
2022/04/30 00:38:19;;;;;;;;;;;6.50;99.90;;;;;;5007206;28;19956;-69
2022/04/30 00:40:45;;;;;;;;;;;6.40;99.90;;;;;;5001486;28;19930;-69
2022/04/30 00:43:11;;;;;;;;;;;6.70;99.90;;;;;;5000647;28;19933;-69
2022/04/30 00:45:36;;;;;;;;;;;6.60;99.90;;;;;;5000661;28;19925;-69
2022/04/30 00:48:02;;;;;;;;;;;6.60;99.90;;;;;;5001871;28;19938;-68
2022/04/30 00:50:33;;;;;;;;;;;6.60;99.90;;;;;;5007442;28;20334;-70
2022/04/30 00:52:59;;;;;;;;;;;7.20;99.90;;;;;;5000190;28;19922;-69
2022/04/30 00:55:27;;;;;;;;;;;6.60;99.90;;;;;;5001356;28;19993;-69
2022/04/30 00:57:54;;;;;;;;;;;6.60;99.90;;;;;;5001136;28;19929;-69
2022/04/30 01:00:20;;;;;;;;;;;6.60;99.90;;;;;;5003839;28;19971;-68
2022/04/30 01:02:46;;;;;;;;;;;6.50;99.90;;;;;;5006064;28;19964;-69
2022/04/30 01:05:11;;;;;;;;;;;6.60;99.90;;;;;;5006645;28;20276;-69
2022/04/30 01:07:40;;;;;;;;;;;6.60;99.90;;;;;;4998026;28;19925;-71
2022/04/30 01:10:07;;;;;;;;;;;6.60;99.90;;;;;;4982502;28;20040;-68
2022/04/30 01:12:32;;;;;;;;;;;6.60;99.90;;;;;;4995302;28;19929;-68
2022/04/30 01:14:58;;;;;;;;;;;6.70;99.90;;;;;;4998360;28;19972;-68
2022/04/30 01:17:24;;;;;;;;;;;6.60;99.90;;;;;;5004635;28;19932;-68
2022/04/30 01:19:50;;;;;;;;;;;6.60;99.90;;;;;;4988542;28;20302;-69
2022/04/30 01:22:19;;;;;;;;;;;6.70;99.90;;;;;;4992478;28;20052;-69
2022/04/30 01:24:46;;;;;;;;;;;6.50;99.90;;;;;;5000635;28;19925;-69
2022/04/30 01:27:13;;;;;;;;;;;6.60;99.90;;;;;;4989379;28;20016;-69
2022/04/30 01:29:41;;;;;;;;;;;6.50;99.90;;;;;;4992349;28;19949;-68
2022/04/30 01:37:37;;;;;;;;;;;6.50;99.90;;;;;;4991845;28;19926;-71
2022/04/30 01:40:04;;;;;;;;;;;6.50;99.90;;;;;;4991238;28;19925;-68
2022/04/30 01:42:31;;;;;;;;;;;6.40;99.90;;;;;;4996979;28;20016;-68
2022/04/30 01:44:59;;;;;;;;;;;6.50;99.90;;;;;;5000662;28;19932;-68
2022/04/30 01:47:25;;;;;;;;;;;6.40;99.90;;;;;;5005934;28;20276;-69
2022/04/30 01:49:51;;;;;;;;;;;6.40;99.90;;;;;;5000465;28;19944;-68
2022/04/30 01:52:17;;;;;;;;;;;6.50;99.90;;;;;;4991191;28;19932;-69
2022/04/30 01:54:42;;;;;;;;;;;6.40;99.90;;;;;;5001895;28;19976;-69
2022/04/30 01:57:08;;;;;;;;;;;6.50;99.90;;;;;;5016051;28;19928;-68
2022/04/30 01:59:34;;;;;;;;;;;6.60;99.90;;;;;;4993417;28;19926;-69
2022/04/30 02:02:01;;;;;;;;;;;6.50;99.90;;;;;;5001948;28;19933;-68
2022/04/30 02:04:27;;;;;;;;;;;6.50;99.90;;;;;;4981412;28;20311;-68
2022/04/30 02:06:53;;;;;;;;;;;6.50;99.90;;;;;;5006145;28;19925;-68
2022/04/30 02:09:20;;;;;;;;;;;6.50;99.90;;;;;;5007195;28;20386;-68
2022/04/30 02:11:48;;;;;;;;;;;6.50;99.90;;;;;;5004973;28;19932;-69
2022/04/30 02:14:15;;;;;;;;;;;6.50;99.90;;;;;;5003244;28;20281;-68
2022/04/30 02:16:45;;;;;;;;;;;6.50;99.90;;;;;;4994620;28;20064;-68
2022/04/30 02:19:10;;;;;;;;;;;6.50;99.90;;;;;;4997694;28;20513;-69
2022/04/30 02:21:36;;;;;;;;;;;6.50;99.90;;;;;;4995883;28;20846;-69
2022/04/30 02:24:02;;;;;;;;;;;6.50;99.90;;;;;;4998433;28;20268;-68
2022/04/30 02:26:28;;;;;;;;;;;6.40;99.90;;;;;;5001671;28;19952;-68
2022/04/30 02:28:56;;;;;;;;;;;6.40;99.90;;;;;;5015249;28;20314;-68
2022/04/30 02:31:24;;;;;;;;;;;6.80;99.90;;;;;;4996137;28;19925;-67
2022/04/30 02:33:49;;;;;;;;;;;6.40;99.90;;;;;;4999092;28;20455;-68
2022/04/30 02:36:15;;;;;;;;;;;6.40;99.90;;;;;;5016973;28;20008;-69
2022/04/30 02:38:41;;;;;;;;;;;6.30;99.90;;;;;;4995472;28;20012;-68
2022/04/30 02:41:07;;;;;;;;;;;6.30;99.90;;;;;;5005117;28;20080;-68
2022/04/30 02:43:32;;;;;;;;;;;6.30;99.90;;;;;;4996117;28;19964;-68
2022/04/30 02:45:58;;;;;;;;;;;6.30;99.90;;;;;;5011210;28;19925;-67
2022/04/30 02:48:24;;;;;;;;;;;6.30;99.90;;;;;;4999833;28;19925;-68
2022/04/30 02:50:51;;;;;;;;;;;6.30;99.90;;;;;;5003214;28;20016;-69
2022/04/30 02:53:18;;;;;;;;;;;6.30;99.90;;;;;;4990128;28;20087;-68
2022/04/30 02:55:44;;;;;;;;;;;6.30;99.90;;;;;;4993546;28;19979;-70
2022/04/30 03:00:53;;;;;;;;;;;6.20;99.90;;;;;;4999051;28;19953;-70
2022/04/30 03:03:20;;;;;;;;;;;6.60;99.90;;;;;;5009889;28;19925;-69
2022/04/30 03:05:48;;;;;;;;;;;6.20;99.90;;;;;;5004166;28;19925;-68
2022/04/30 03:08:14;;;;;;;;;;;6.20;99.90;;;;;;5001898;28;19960;-68
2022/04/30 03:10:41;;;;;;;;;;;6.20;99.90;;;;;;5001082;28;20410;-69
2022/04/30 03:13:06;;;;;;;;;;;6.20;99.90;;;;;;5001300;28;20295;-69
2022/04/30 03:15:33;;;;;;;;;;;6.30;99.90;;;;;;4993099;28;19925;-68
2022/04/30 03:23:27;;;;;;;;;;;6.30;99.90;;;;;;4991266;28;19964;-69
2022/04/30 03:25:53;;;;;;;;;;;6.30;99.90;;;;;;4993669;28;20028;-68
2022/04/30 03:28:18;;;;;;;;;;;6.20;99.90;;;;;;4996228;28;20012;-68
2022/04/30 03:30:46;;;;;;;;;;;6.50;99.90;;;;;;4998207;28;19968;-68
2022/04/30 03:33:11;;;;;;;;;;;6.20;99.90;;;;;;5023088;28;19929;-68
2022/04/30 03:35:38;;;;;;;;;;;6.10;99.90;;;;;;5000896;28;20305;-69
2022/04/30 03:38:05;;;;;;;;;;;6.50;99.90;;;;;;5002711;28;19968;-69
2022/04/30 03:40:30;;;;;;;;;;;6.10;99.90;;;;;;5008684;28;20043;-68
2022/04/30 03:42:56;;;;;;;;;;;6.10;99.90;;;;;;4996807;28;20048;-69
2022/04/30 03:45:22;;;;;;;;;;;6.10;99.90;;;;;;5020206;28;20403;-68
2022/04/30 03:47:48;;;;;;;;;;;6.10;99.90;;;;;;5005210;28;19932;-69
2022/04/30 03:50:14;;;;;;;;;;;6.10;99.90;;;;;;4998599;28;19925;-69
2022/04/30 03:52:40;;;;;;;;;;;6.00;99.90;;;;;;5000022;28;20284;-67
2022/04/30 03:55:07;;;;;;;;;;;6.00;99.90;;;;;;4996040;28;19926;-68
2022/04/30 03:57:32;;;;;;;;;;;6.00;99.90;;;;;;5008577;28;19925;-69
2022/04/30 03:59:58;;;;;;;;;;;6.00;99.90;;;;;;5004298;28;19935;-69
2022/04/30 04:02:24;;;;;;;;;;;6.00;99.90;;;;;;4997629;28;19972;-68
2022/04/30 04:04:51;;;;;;;;;;;6.00;99.90;;;;;;5005081;28;19929;-68
2022/04/30 04:07:16;;;;;;;;;;;6.00;99.90;;;;;;4991060;28;20197;-68
2022/04/30 04:09:42;;;;;;;;;;;6.00;99.90;;;;;;5004620;28;20194;-68
2022/04/30 04:12:08;;;;;;;;;;;6.90;99.90;;;;;;5001549;28;19925;-69
2022/04/30 04:20:02;;;;;;;;;;;6.10;99.90;;;;;;4998033;28;20039;-69
2022/04/30 04:22:28;;;;;;;;;;;6.10;99.90;;;;;;5010099;28;20684;-69
2022/04/30 04:27:38;;;;;;;;;;;6.10;99.90;;;;;;5007211;28;19948;-69
2022/04/30 04:30:04;;;;;;;;;;;6.10;99.90;;;;;;4995553;28;20395;-69
2022/04/30 04:32:30;;;;;;;;;;;6.10;99.90;;;;;;5006011;28;19949;-68
2022/04/30 04:34:55;;;;;;;;;;;6.20;99.90;;;;;;5000535;28;20375;-68
2022/04/30 04:37:21;;;;;;;;;;;7.80;99.90;;;;;;5005898;28;19937;-68
2022/04/30 04:39:46;;;;;;;;;;;6.40;99.90;;;;;;5000816;28;20340;-68
2022/04/30 04:42:12;;;;;;;;;;;6.30;99.90;;;;;;4990697;28;19952;-69
2022/04/30 04:44:37;;;;;;;;;;;6.30;99.90;;;;;;5002355;28;19979;-68
2022/04/30 04:47:03;;;;;;;;;;;6.40;99.90;;;;;;4999370;28;20352;-70
2022/04/30 04:49:31;;;;;;;;;;;6.40;99.90;;;;;;4999284;28;19933;-68
2022/04/30 04:51:56;;;;;;;;;;;6.50;99.90;;;;;;5001381;28;20001;-69
2022/04/30 04:54:22;;;;;;;;;;;6.50;99.90;;;;;;4992081;28;20403;-68
2022/04/30 04:56:47;;;;;;;;;;;6.60;99.90;;;;;;4994278;28;20016;-68
2022/04/30 04:59:13;;;;;;;;;;;6.60;99.90;;;;;;4998234;28;19932;-68
2022/04/30 05:01:40;;;;;;;;;;;6.70;99.90;;;;;;4996389;28;19980;-68
2022/04/30 05:04:08;;;;;;;;;;;6.70;99.90;;;;;;5008068;28;19921;-69
2022/04/30 05:06:37;;;;;;;;;;;6.80;99.90;;;;;;5005669;28;20311;-68
2022/04/30 05:09:02;;;;;;;;;;;6.80;99.90;;;;;;4998471;28;19925;-68
2022/04/30 05:11:28;;;;;;;;;;;6.80;99.90;;;;;;5004977;28;20350;-69
2022/04/30 05:13:57;;;;;;;;;;;8.00;99.90;;;;;;5005585;28;20324;-69
2022/04/30 05:16:22;;;;;;;;;;;6.90;99.90;;;;;;5018795;28;19948;-68
2022/04/30 05:18:48;;;;;;;;;;;7.00;99.90;;;;;;5002254;28;20486;-68
2022/04/30 05:21:13;;;;;;;;;;;7.00;99.90;;;;;;5006137;28;19932;-69
2022/04/30 05:23:39;;;;;;;;;;;7.10;99.90;;;;;;5006027;28;20038;-69
2022/04/30 05:26:04;;;;;;;;;;;7.20;99.90;;;;;;5001133;28;19925;-70
2022/04/30 05:28:30;;;;;;;;;;;7.20;99.90;;;;;;4991806;28;19940;-69
2022/04/30 05:30:55;;;;;;;;;;;7.30;99.90;;;;;;5004158;28;20306;-69
2022/04/30 05:33:22;;;;;;;;;;;7.90;99.90;;;;;;4999084;28;19929;-69
2022/04/30 05:35:47;;;;;;;;;;;7.30;99.90;;;;;;4990586;28;20707;-69
2022/04/30 05:38:13;;;;;;;;;;;7.50;99.90;;;;;;5003393;28;20418;-68
2022/04/30 05:40:38;;;;;;;;;;;7.90;99.90;;;;;;4991181;28;20389;-69
2022/04/30 05:43:04;;;;;;;;;;;7.30;99.90;;;;;;5008174;28;19926;-70
2022/04/30 05:45:30;;;;;;;;;;;7.60;99.90;;;;;;4998013;28;20401;-69
2022/04/30 05:47:57;;;;;;;;;;;7.70;99.90;;;;;;4995628;28;19964;-68
2022/04/30 05:50:22;;;;;;;;;;;9.40;99.90;;;;;;5005793;28;19965;-68
2022/04/30 05:52:48;;;;;;;;;;;6.80;99.90;;;;;;4997936;28;19941;-69
2022/04/30 05:55:14;;;;;;;;;;;7.90;99.90;;;;;;4997611;28;19926;-68
2022/04/30 05:57:39;;;;;;;;;;;8.00;99.90;;;;;;4994174;28;19931;-69
2022/04/30 06:00:05;;;;;;;;;;;8.10;99.90;;;;;;4999711;28;19979;-69
2022/04/30 06:02:31;;;;;;;;;;;8.10;99.90;;;;;;4994544;28;19925;-71
2022/04/30 06:04:56;;;;;;;;;;;8.20;99.90;;;;;;5003793;28;19925;-69
2022/04/30 06:07:22;;;;;;;;;;;8.30;99.90;;;;;;5005553;28;19925;-68
2022/04/30 06:09:47;;;;;;;;;;;8.40;99.90;;;;;;5021756;28;20017;-70
2022/04/30 06:12:13;;;;;;;;;;;8.60;99.90;;;;;;5011480;28;19925;-69
2022/04/30 06:14:38;;;;;;;;;;;8.80;99.90;;;;;;5005470;28;19965;-69
2022/04/30 06:17:04;;;;;;;;;;;8.80;99.90;;;;;;4993402;28;20244;-69
2022/04/30 06:19:30;;;;;;;;;;;8.80;99.90;;;;;;5018483;28;20391;-69
2022/04/30 06:21:55;;;;;;;;;;;8.90;99.90;;;;;;4993356;28;20445;-69
2022/04/30 06:24:21;;;;;;;;;;;9.00;99.90;;;;;;4994933;28;19980;-70
2022/04/30 06:26:46;;;;;;;;;;;9.40;99.90;;;;;;4993111;28;19926;-69
2022/04/30 06:29:13;;;;;;;;;;;9.10;99.90;;;;;;5004505;28;19929;-69
2022/04/30 06:31:38;;;;;;;;;;;9.20;99.90;;;;;;4999292;28;20072;-69
2022/04/30 06:34:04;;;;;;;;;;;9.30;99.90;;;;;;5007625;28;20486;-69
2022/04/30 06:36:30;;;;;;;;;;;8.70;99.90;;;;;;4993566;28;19926;-68
2022/04/30 06:38:56;;;;;;;;;;;9.40;99.90;;;;;;5001820;28;20071;-69
2022/04/30 06:41:21;;;;;;;;;;;9.50;99.90;;;;;;4993495;28;20449;-69
2022/04/30 06:43:49;;;;;;;;;;;9.60;99.90;;;;;;4994706;28;20419;-68
2022/04/30 06:46:14;;;;;;;;;;;9.70;99.90;;;;;;4993341;28;19932;-68
2022/04/30 06:48:40;;;;;;;;;;;9.50;99.90;;;;;;5021794;28;20009;-69
2022/04/30 06:51:06;;;;;;;;;;;9.60;99.90;;;;;;5001460;28;20321;-68
2022/04/30 06:59:10;;;;;;;;;;;9.60;99.90;;;;;;5000115;28;19975;-69
2022/04/30 07:01:52;;;;;;;;;;;9.50;99.90;;;;;;5005921;28;19995;-70
2022/04/30 07:04:18;;;;;;;;;;;9.60;99.90;;;;;;5010647;28;19929;-69
2022/04/30 07:06:45;;;;;;;;;;;9.70;99.90;;;;;;5006231;28;19972;-69
2022/04/30 07:09:13;;;;;;;;;;;9.70;99.90;;;;;;5009407;28;19926;-70
2022/04/30 07:11:39;;;;;;;;;;;9.80;99.90;;;;;;5010221;28;19972;-68
2022/04/30 07:14:04;;;;;;;;;;;9.90;99.90;;;;;;5014957;28;19925;-69
2022/04/30 07:16:30;;;;;;;;;;;9.90;99.90;;;;;;5004688;28;19922;-69
2022/04/30 07:18:55;;;;;;;;;;;10.00;99.90;;;;;;5009457;28;19925;-69
2022/04/30 07:21:23;;;;;;;;;;;10.00;99.90;;;;;;5003829;28;20281;-70
2022/04/30 07:23:51;;;;;;;;;;;10.20;99.90;;;;;;5011426;28;20367;-69
2022/04/30 07:26:16;;;;;;;;;;;10.20;99.90;;;;;;4984161;28;20332;-69
2022/04/30 07:28:42;;;;;;;;;;;10.90;99.90;;;;;;5011087;28;20366;-69
2022/04/30 07:31:10;;;;;;;;;;;11.50;99.90;;;;;;5008423;28;19929;-69
2022/04/30 07:33:36;;;;;;;;;;;10.40;99.90;;;;;;5002315;28;20010;-69
2022/04/30 07:36:02;;;;;;;;;;;10.40;99.90;;;;;;5015131;28;20022;-69
2022/04/30 07:38:27;;;;;;;;;;;10.40;99.90;;;;;;5012688;28;19932;-70
2022/04/30 07:40:53;;;;;;;;;;;10.50;99.90;;;;;;5009231;28;19926;-70
2022/04/30 07:43:19;;;;;;;;;;;10.40;99.90;;;;;;4995063;28;20085;-70
2022/04/30 07:45:45;;;;;;;;;;;10.30;99.90;;;;;;4996933;28;19981;-70
2022/04/30 07:48:10;;;;;;;;;;;10.30;99.90;;;;;;5009711;28;19925;-69
2022/04/30 07:50:36;;;;;;;;;;;10.20;99.90;;;;;;5009335;28;19925;-70
2022/04/30 07:53:02;;;;;;;;;;;10.30;99.90;;;;;;4991519;28;19926;-70
2022/04/30 07:55:28;;;;;;;;;;;10.50;99.90;;;;;;5013778;28;19960;-70
2022/04/30 07:57:54;;;;;;;;;;;10.20;99.90;;;;;;4990892;28;19925;-68
2022/04/30 08:00:19;;;;;;;;;;;10.80;99.90;;;;;;5020541;28;20374;-69
2022/04/30 08:02:45;;;;;;;;;;;10.10;99.90;;;;;;5006464;28;19925;-69
2022/04/30 08:05:10;;;;;;;;;;;10.10;99.90;;;;;;5004450;28;19980;-70
2022/04/30 08:07:36;;;;;;;;;;;9.90;99.90;;;;;;5006895;28;19925;-70
2022/04/30 08:10:02;;;;;;;;;;;9.90;99.90;;;;;;4997880;28;19925;-69
2022/04/30 08:12:31;;;;;;;;;;;9.90;99.90;;;;;;4995986;28;20245;-69
2022/04/30 08:14:56;;;;;;;;;;;9.90;99.90;;;;;;5005339;28;19930;-69
2022/04/30 08:17:22;;;;;;;;;;;10.20;99.90;;;;;;4996371;28;20464;-69
2022/04/30 08:19:48;;;;;;;;;;;9.90;99.90;;;;;;5019437;28;19925;-70
2022/04/30 08:22:14;;;;;;;;;;;8.60;99.90;;;;;;5025651;28;19956;-69
2022/04/30 08:24:39;;;;;;;;;;;9.90;99.90;;;;;;5010203;28;19979;-70
2022/04/30 08:27:05;;;;;;;;;;;9.90;99.90;;;;;;4995227;28;20411;-69
2022/04/30 08:29:30;;;;;;;;;;;9.90;99.90;;;;;;5006980;28;19925;-69
2022/04/30 08:31:56;;;;;;;;;;;10.00;99.90;;;;;;5000541;28;20268;-70
2022/04/30 08:34:21;;;;;;;;;;;10.10;99.90;;;;;;5014926;28;19930;-70
2022/04/30 08:36:48;;;;;;;;;;;10.30;99.90;;;;;;4999963;28;19967;-69
2022/04/30 08:39:16;;;;;;;;;;;10.50;99.90;;;;;;5006448;28;19929;-71
2022/04/30 08:41:42;;;;;;;;;;;10.70;99.90;;;;;;5008242;28;19930;-69
2022/04/30 08:44:17;;;;;;;;;;;10.90;99.90;;;;;;5004648;28;19928;-70
2022/04/30 08:46:43;;;;;;;;;;;11.10;99.90;;;;;;4993411;28;19922;-70
2022/04/30 08:49:10;;;;;;;;;;;11.40;99.90;;;;;;5011717;28;20424;-69
2022/04/30 08:51:35;;;;;;;;;;;11.50;99.90;;;;;;4997542;28;20047;-69
2022/04/30 08:54:01;;;;;;;;;;;11.60;99.90;;;;;;5009736;28;20410;-69
2022/04/30 08:56:27;;;;;;;;;;;11.60;99.90;;;;;;4999232;28;19930;-68
2022/04/30 08:59:05;;;;;;;;;;;11.70;99.90;;;;;;4991399;28;20015;-69
2022/04/30 09:01:31;;;;;;;;;;;11.80;99.90;;;;;;4993311;28;19933;-69
2022/04/30 09:03:58;;;;;;;;;;;11.80;99.90;;;;;;5004042;28;20564;-69
2022/04/30 09:06:27;;;;;;;;;;;11.90;99.90;;;;;;5006840;28;19979;-68
2022/04/30 09:08:52;;;;;;;;;;;12.00;99.90;;;;;;5010318;28;19964;-69
2022/04/30 09:11:26;;;;;;;;;;;12.00;99.90;;;;;;5024259;28;19925;-69
2022/04/30 09:13:52;;;;;;;;;;;12.20;99.90;;;;;;4999207;28;19933;-68
2022/04/30 09:16:21;;;;;;;;;;;11.90;99.90;;;;;;5007139;28;19925;-68
2022/04/30 09:18:48;;;;;;;;;;;11.90;99.90;;;;;;5002231;28;20288;-69
2022/04/30 09:21:14;;;;;;;;;;;11.70;99.90;;;;;;5013669;28;20334;-68
2022/04/30 09:23:40;;;;;;;;;;;11.60;99.90;;;;;;4999091;28;19929;-69
2022/04/30 09:26:06;;;;;;;;;;;11.70;99.90;;;;;;4997564;28;19928;-68
2022/04/30 09:28:33;;;;;;;;;;;11.50;99.90;;;;;;5001881;28;20473;-68
2022/04/30 09:31:25;;;;;;;;;;;11.30;99.90;;;;;;5009079;28;19971;-69
2022/04/30 09:33:51;;;;;;;;;;;11.00;99.90;;;;;;4997920;28;20383;-69
2022/04/30 09:39:10;;;;;;;;;;;10.80;99.90;;;;;;5007912;28;20387;-69
2022/04/30 09:41:36;;;;;;;;;;;10.60;99.90;;;;;;4999829;28;19935;-68
2022/04/30 09:44:06;;;;;;;;;;;11.10;99.90;;;;;;5006578;28;19925;-69
2022/04/30 09:46:33;;;;;;;;;;;10.40;99.90;;;;;;4981359;28;20039;-70
2022/04/30 09:54:29;;;;;;;;;;;10.10;99.90;;;;;;5005204;28;20259;-69
2022/04/30 09:56:57;;;;;;;;;;;10.10;99.90;;;;;;5007453;28;19922;-69
2022/04/30 09:59:25;;;;;;;;;;;10.10;99.90;;;;;;5005284;28;20209;-68
2022/04/30 10:01:51;;;;;;;;;;;10.00;99.90;;;;;;5015916;28;19929;-69
2022/04/30 10:04:18;;;;;;;;;;;9.90;99.90;;;;;;5005159;28;19921;-68
2022/04/30 10:06:51;;;;;;;;;;;10.30;99.90;;;;;;4993982;28;20021;-69
2022/04/30 10:09:36;;;;;;;;;;;10.00;99.90;;;;;;5010760;28;20027;-68
2022/04/30 10:12:03;;;;;;;;;;;10.30;99.90;;;;;;5011109;28;19952;-68
2022/04/30 10:14:47;;;;;;;;;;;10.00;99.90;;;;;;5011977;28;19928;-68
2022/04/30 10:17:16;;;;;;;;;;;9.90;99.90;;;;;;5011736;28;20004;-68
2022/04/30 10:19:58;;;;;;;;;;;10.00;99.90;;;;;;5011195;28;19921;-68
2022/04/30 10:22:24;;;;;;;;;;;10.00;99.90;;;;;;5012105;28;19921;-68
2022/04/30 10:24:50;;;;;;;;;;;10.00;99.90;;;;;;5001236;28;20360;-68
2022/04/30 10:27:16;;;;;;;;;;;10.10;99.90;;;;;;4995172;28;19968;-69
2022/04/30 10:29:58;;;;;;;;;;;10.40;99.90;;;;;;4992944;28;19922;-68
2022/04/30 10:32:28;;;;;;;;;;;10.20;99.90;;;;;;4992122;28;20380;-68
2022/04/30 10:34:54;;;;;;;;;;;10.30;99.90;;;;;;4992652;28;19928;-68
2022/04/30 10:37:46;;;;;;;;;;;10.40;99.90;;;;;;4995727;28;20004;-68
2022/04/30 10:40:12;;;;;;;;;;;10.50;99.90;;;;;;4991860;28;20356;-68
2022/04/30 10:42:42;;;;;;;;;;;10.60;99.90;;;;;;5007447;28;20431;-70
2022/04/30 10:45:11;;;;;;;;;;;10.70;99.90;;;;;;5015313;28;19921;-69
2022/04/30 10:47:48;;;;;;;;;;;10.70;99.90;;;;;;5021874;28;19932;-68
2022/04/30 10:50:14;;;;;;;;;;;10.70;99.90;;;;;;5015527;28;19917;-67
2022/04/30 10:52:39;;;;;;;;;;;10.60;99.90;;;;;;5011926;28;19930;-69
2022/04/30 10:55:10;;;;;;;;;;;10.60;99.90;;;;;;5003080;28;20012;-68
2022/04/30 10:57:45;;;;;;;;;;;10.70;99.90;;;;;;5016026;28;19922;-69
2022/04/30 11:00:11;;;;;;;;;;;10.70;99.90;;;;;;5016333;28;20348;-68
2022/04/30 11:02:36;;;;;;;;;;;10.60;99.90;;;;;;5014384;28;20303;-68
2022/04/30 11:05:02;;;;;;;;;;;10.60;99.90;;;;;;5014972;28;20090;-68
2022/04/30 11:07:29;;;;;;;;;;;10.60;99.90;;;;;;5016206;28;19929;-68
2022/04/30 11:09:55;;;;;;;;;;;10.70;99.90;;;;;;5011840;28;19928;-69
2022/04/30 11:12:21;;;;;;;;;;;10.80;99.90;;;;;;4998630;28;20007;-68
2022/04/30 11:14:47;;;;;;;;;;;11.40;99.90;;;;;;5015850;28;20000;-69
2022/04/30 11:17:12;;;;;;;;;;;10.90;99.90;;;;;;5015634;28;19929;-68
2022/04/30 11:19:41;;;;;;;;;;;11.00;99.90;;;;;;5016485;28;19921;-68
2022/04/30 11:22:09;;;;;;;;;;;10.90;99.90;;;;;;5014576;28;19928;-68
2022/04/30 11:24:37;;;;;;;;;;;10.90;99.90;;;;;;5012067;28;19993;-67
2022/04/30 11:27:04;;;;;;;;;;;11.10;99.90;;;;;;5003712;28;19922;-69
2022/04/30 11:29:30;;;;;;;;;;;11.20;99.90;;;;;;5015902;28;19928;-69
2022/04/30 11:31:57;;;;;;;;;;;11.20;99.90;;;;;;5003755;28;20001;-68
2022/04/30 11:34:22;;;;;;;;;;;11.10;99.90;;;;;;5030813;28;19925;-67
2022/04/30 11:36:50;;;;;;;;;;;11.30;99.90;;;;;;5015849;28;19991;-68
2022/04/30 11:39:16;;;;;;;;;;;11.20;99.90;;;;;;5013284;28;19921;-68
2022/04/30 11:41:43;;;;;;;;;;;11.10;99.90;;;;;;5015141;28;19933;-68
2022/04/30 11:44:09;;;;;;;;;;;11.00;99.90;;;;;;4997319;28;20282;-69
2022/04/30 11:46:36;;;;;;;;;;;11.00;99.90;;;;;;5015335;28;19921;-68
2022/04/30 11:49:06;;;;;;;;;;;11.10;99.90;;;;;;4997343;28;20268;-68
2022/04/30 11:51:32;;;;;;;;;;;11.10;99.90;;;;;;5014699;28;19917;-69
2022/04/30 11:53:57;;;;;;;;;;;11.20;99.90;;;;;;5012531;28;19929;-68
2022/04/30 11:56:23;;;;;;;;;;;12.90;99.90;;;;;;5005999;28;20215;-68
2022/04/30 11:58:48;;;;;;;;;;;11.40;99.90;;;;;;5004884;28;19921;-68
2022/04/30 12:01:19;;;;;;;;;;;11.40;99.90;;;;;;5009493;28;19975;-67
2022/04/30 12:03:44;;;;;;;;;;;11.50;99.90;;;;;;5000293;28;19921;-69
2022/04/30 12:06:10;;;;;;;;;;;11.50;99.90;;;;;;4994758;28;20410;-69
2022/04/30 12:08:36;;;;;;;;;;;11.50;99.90;;;;;;5012924;28;20326;-68
2022/04/30 12:11:01;;;;;;;;;;;10.80;99.90;;;;;;4994381;28;20060;-68
2022/04/30 12:13:28;;;;;;;;;;;11.70;99.90;;;;;;4995452;28;20394;-69
2022/04/30 12:16:06;;;;;;;;;;;11.80;99.90;;;;;;4996663;28;19929;-68
2022/04/30 12:24:49;;;;;;;;;;;12.00;99.90;;;;;;5011977;28;19970;-69
2022/04/30 12:27:04;;;;;;;;;;;11.90;99.90;;;;;;5008007;28;20307;-69
2022/04/30 12:29:30;;;;;;;;;;;11.90;99.90;;;;;;5013168;28;19928;-68
2022/04/30 12:31:56;;;;;;;;;;;12.00;99.90;;;;;;5013943;28;19957;-67
2022/04/30 12:34:25;;;;;;;;;;;12.10;99.90;;;;;;5014129;28;19931;-68
2022/04/30 12:36:55;;;;;;;;;;;12.00;99.90;;;;;;5010461;28;20364;-68
2022/04/30 12:39:22;;;;;;;;;;;12.00;99.90;;;;;;4996669;28;20000;-68
2022/04/30 12:41:48;;;;;;;;;;;12.00;99.90;;;;;;5001233;28;19921;-69
2022/04/30 12:44:14;;;;;;;;;;;12.00;99.90;;;;;;5014221;28;19918;-68
2022/04/30 12:46:44;;;;;;;;;;;12.10;99.90;;;;;;5013699;28;19928;-68
2022/04/30 12:49:11;;;;;;;;;;;12.10;99.90;;;;;;5012574;28;20391;-69
2022/04/30 12:51:37;;;;;;;;;;;12.20;99.90;;;;;;5014267;28;20371;-70
2022/04/30 12:54:02;;;;;;;;;;;12.20;99.90;;;;;;4996305;28;20018;-68
2022/04/30 12:56:29;;;;;;;;;;;12.20;99.90;;;;;;4996967;28;19929;-68
2022/04/30 12:58:55;;;;;;;;;;;12.10;99.90;;;;;;5011963;28;19928;-68
2022/04/30 13:01:20;;;;;;;;;;;12.00;99.90;;;;;;5013693;28;19921;-68
2022/04/30 13:03:46;;;;;;;;;;;11.90;99.90;;;;;;5012277;28;19975;-68
2022/04/30 13:06:12;;;;;;;;;;;11.90;99.90;;;;;;5013678;28;20022;-68
2022/04/30 13:14:06;;;;;;;;;;;11.90;99.90;;;;;;4999216;28;19921;-69
2022/04/30 13:16:32;;;;;;;;;;;11.90;99.90;;;;;;4999033;28;20370;-68
2022/04/30 13:18:58;;;;;;;;;;;11.70;99.90;;;;;;4993844;28;20360;-68
2022/04/30 13:21:24;;;;;;;;;;;11.70;99.90;;;;;;4995866;28;20122;-69
2022/04/30 13:23:50;;;;;;;;;;;11.70;99.90;;;;;;4998747;28;20004;-68
2022/04/30 13:26:16;;;;;;;;;;;11.70;99.90;;;;;;5013638;28;19943;-69
2022/04/30 13:28:41;;;;;;;;;;;11.70;99.90;;;;;;5012351;28;19922;-70
2022/04/30 13:31:07;;;;;;;;;;;11.80;99.90;;;;;;5013025;28;19931;-68
2022/04/30 13:33:33;;;;;;;;;;;11.70;99.90;;;;;;5011284;28;19921;-69
2022/04/30 13:35:58;;;;;;;;;;;11.50;99.90;;;;;;5013240;28;19952;-68
2022/04/30 13:38:24;;;;;;;;;;;11.80;99.90;;;;;;5011464;28;19976;-69
2022/04/30 13:40:49;;;;;;;;;;;11.60;99.90;;;;;;5004710;28;19925;-69
2022/04/30 13:43:15;;;;;;;;;;;11.50;99.90;;;;;;5013334;28;19921;-68
2022/04/30 13:45:41;;;;;;;;;;;11.40;99.90;;;;;;5011466;28;19925;-70
2022/04/30 13:48:07;;;;;;;;;;;11.40;99.90;;;;;;5011869;28;19928;-68
2022/04/30 13:50:32;;;;;;;;;;;11.40;99.90;;;;;;5011942;28;19922;-70
2022/04/30 13:52:58;;;;;;;;;;;11.30;99.90;;;;;;5012958;28;19921;-68
2022/04/30 13:55:26;;;;;;;;;;;11.30;99.90;;;;;;5012004;28;20015;-69
2022/04/30 13:57:51;;;;;;;;;;;11.40;99.90;;;;;;5013065;28;20409;-69
2022/04/30 14:00:21;;;;;;;;;;;11.50;99.90;;;;;;5022090;28;20030;-69
2022/04/30 14:02:47;;;;;;;;;;;11.30;99.90;;;;;;5012854;28;19967;-68
2022/04/30 14:05:13;;;;;;;;;;;11.30;99.90;;;;;;5011586;28;20016;-69
2022/04/30 14:07:38;;;;;;;;;;;11.30;99.90;;;;;;5012752;28;20383;-69
2022/04/30 14:10:05;;;;;;;;;;;11.20;99.90;;;;;;5005943;28;19922;-69
2022/04/30 14:12:31;;;;;;;;;;;11.30;99.90;;;;;;4998409;28;19921;-69
2022/04/30 14:14:57;;;;;;;;;;;11.30;99.90;;;;;;4995202;28;20008;-69
2022/04/30 14:20:08;;;;;;;;;;;11.10;99.90;;;;;;5012882;28;19975;-69
2022/04/30 14:22:34;;;;;;;;;;;11.10;99.90;;;;;;5007690;28;19937;-69
2022/04/30 14:25:00;;;;;;;;;;;11.10;99.90;;;;;;4995412;28;19921;-68
2022/04/30 14:27:26;;;;;;;;;;;11.80;99.90;;;;;;5012253;28;19967;-69
2022/04/30 14:29:52;;;;;;;;;;;11.00;99.90;;;;;;5011437;28;19922;-70
2022/04/30 14:32:19;;;;;;;;;;;10.90;99.90;;;;;;5012696;28;20053;-68
2022/04/30 14:34:44;;;;;;;;;;;10.80;99.90;;;;;;5012168;28;20019;-68
2022/04/30 14:37:10;;;;;;;;;;;10.80;99.90;;;;;;5012675;28;20359;-68
2022/04/30 14:39:36;;;;;;;;;;;10.90;99.90;;;;;;5012956;28;20011;-68
2022/04/30 14:42:02;;;;;;;;;;;10.90;99.90;;;;;;4992635;28;19932;-69
2022/04/30 14:44:28;;;;;;;;;;;11.00;99.90;;;;;;5012515;28;19917;-68
2022/04/30 14:46:54;;;;;;;;;;;11.00;99.90;;;;;;5012468;28;19928;-68
2022/04/30 14:49:20;;;;;;;;;;;11.00;99.90;;;;;;5012392;28;19921;-68
2022/04/30 14:51:47;;;;;;;;;;;10.90;99.90;;;;;;5011822;28;20290;-69
2022/04/30 14:54:13;;;;;;;;;;;10.90;99.90;;;;;;5011274;28;20008;-68
2022/04/30 14:56:41;;;;;;;;;;;10.80;99.90;;;;;;4999106;28;19961;-68
2022/04/30 14:59:08;;;;;;;;;;;10.80;99.90;;;;;;4991412;28;19922;-68
2022/04/30 15:01:34;;;;;;;;;;;10.90;99.90;;;;;;4992981;28;19944;-69
2022/04/30 15:04:00;;;;;;;;;;;11.00;99.90;;;;;;5011127;28;20430;-68
2022/04/30 15:06:26;;;;;;;;;;;11.00;99.90;;;;;;5012362;28;20367;-68
2022/04/30 15:08:58;;;;;;;;;;;10.90;99.90;;;;;;5011958;28;19922;-69
2022/04/30 15:11:25;;;;;;;;;;;10.90;99.90;;;;;;4994255;28;19921;-68